• Join FlightAware (Why Join?)
  • Login
  • US Flag GB Flag 
08:42 EDT


 

Airport Tracker/Info


-or-


 

Live Flight TrackerFlight Track Log ✈ AJI501 ✈ 19-Apr-2013 ✈ KLIT - KMFE

Flight Track Log - Related Links

Times and Time Zones

All times are in EDT time to prevent confusion due to time zone crossing. See the AJI501 flight status page for this flight to view local times or setup timezone preferences in your user account.

Time Position Orientation Groundspeed Altitude Reporting Facility
EDT Latitude Longitude Course Direction KTS MPH feet Rate Location/Type
17:40 34.7494 -92.2097 31° Northeast 178 205 1,500  Level Memphis Center
17:41 34.7675 -92.2583 294° West 189 217 4,300 2,640 Climbing Memphis Center
17:42 34.7644 -92.3214 267° West 199 229 6,600 2,160 Climbing Memphis Center
17:43 34.7594 -92.3744 263° West 224 258 7,900 1,920 Climbing Memphis Center
17:44 34.7311 -92.4544 247° West 242 278 10,000 2,100 Climbing Memphis Center
17:45 34.6942 -92.5344 241° Southwest 256 295 12,200 2,160 Climbing Memphis Center
17:46 34.6514 -92.6042 233° Southwest 261 300 14,400 1,800 Climbing Memphis Center
17:47 34.6000 -92.6758 229° Southwest 273 314 15,800 1,320 Climbing Memphis Center
17:48 34.5442 -92.7550 229° Southwest 293 337 17,100 1,500 Climbing Memphis Center
17:49 34.4883 -92.8367 230° Southwest 307 353 18,900 1,800 Climbing Memphis Center
17:50 34.4347 -92.9131 230° Southwest 307 353 20,700 1,440 Climbing Memphis Center
17:51 34.3808 -92.9919 230° Southwest 307 353 21,800 1,140 Climbing Memphis Center
17:52 34.3228 -93.0683 227° Southwest 325 374 23,000 1,560 Climbing Memphis Center
17:54 34.2217 -93.2039 228° Southwest 313 360 26,200 1,620 Climbing Fort Worth Center
17:55 34.1700 -93.2819 231° Southwest 308 354 27,500 900 Climbing Fort Worth Center
17:56 34.1122 -93.3597 228° Southwest 308 354 28,000 240 Climbing Fort Worth Center
17:57 34.0500 -93.4406 227° Southwest 319 367 28,000  Level Fort Worth Center
17:58 33.9817 -93.5236 225° Southwest 337 388 28,000  Level Fort Worth Center
17:59 33.9069 -93.6072 223° Southwest 350 403 28,000  Level Fort Worth Center
18:00 33.8258 -93.6831 218° Southwest 368 423 28,000  Level Fort Worth Center
18:01 33.7250 -93.7350 203° Southwest 375 432 28,000  Level Fort Worth Center
18:02 33.6289 -93.7964 208° Southwest 386 444 28,000  Level Fort Worth Center
18:03 33.5367 -93.8625 211° Southwest 386 444 28,000  Level Fort Worth Center
18:04 33.4428 -93.9308 211° Southwest 391 450 28,000  Level Fort Worth Center
18:05 33.3486 -94.0017 212° Southwest 398 458 28,000  Level Fort Worth Center
18:06 33.2544 -94.0650 209° Southwest 403 464 28,000  Level Fort Worth Center
18:07 33.1619 -94.1256 209° Southwest 392 451 28,000  Level Fort Worth Center
18:08 33.0656 -94.1886 209° Southwest 392 451 28,000  Level Fort Worth Center
18:09 32.9731 -94.2489 209° Southwest 386 444 28,000  Level Fort Worth Center
18:10 32.8808 -94.3089 209° Southwest 386 444 28,000  Level Fort Worth Center
18:11 32.7883 -94.3714 210° Southwest 386 444 28,000  Level Fort Worth Center
18:12 32.6978 -94.4314 209° Southwest 386 444 28,000  Level Fort Worth Center
18:13 32.6075 -94.4936 210° Southwest 386 444 28,000  Level Fort Worth Center
18:14 32.5150 -94.5531 208° Southwest 386 444 28,000  Level Fort Worth Center
18:15 32.4242 -94.6078 207° Southwest 386 444 28,000  Level Fort Worth Center
18:16 32.3358 -94.6644 208° Southwest 380 437 28,000  Level Fort Worth Center
18:17 32.2472 -94.7261 210° Southwest 375 432 28,000  Level Fort Worth Center
18:18 32.1631 -94.7900 213° Southwest 370 426 28,000  Level Fort Worth Center
18:19 32.0767 -94.8464 209° Southwest 364 419 28,000  Level Fort Worth Center
18:20 31.9881 -94.9053 209° Southwest 364 419 28,000  Level Fort Worth Center
18:21 31.9014 -94.9614 209° Southwest 364 419 28,000  Level Fort Worth Center
18:23 31.7094 -95.0833 208° Southwest 355 409 28,000  Level Houston Center
18:24 31.6231 -95.1386 209° Southwest 354 407 28,000  Level Houston Center
18:25 31.5211 -95.2044 209° Southwest 350 403 28,000  Level Houston Center
18:26 31.4378 -95.2611 210° Southwest 348 400 28,000  Level Houston Center
18:27 31.3539 -95.3153 209° Southwest 346 398 28,000  Level Houston Center
18:28 31.2711 -95.3683 209° Southwest 344 396 28,000  Level Houston Center
18:29 31.1869 -95.4206 208° Southwest 343 395 28,000  Level Houston Center
18:30 31.0875 -95.4850 209° Southwest 341 392 28,000  Level Houston Center
18:31 31.0031 -95.5372 208° Southwest 342 394 28,000  Level Houston Center
18:32 30.9208 -95.5897 209° Southwest 340 391 28,000  Level Houston Center
18:33 30.8386 -95.6422 209° Southwest 339 390 28,000  Level Houston Center
18:34 30.7564 -95.6961 209° Southwest 339 390 28,000  Level Houston Center
18:35 30.6747 -95.7475 208° Southwest 341 392 28,000  Level Houston Center
18:36 30.5725 -95.8108 208° Southwest 345 397 28,000  Level Houston Center
18:37 30.4889 -95.8631 208° Southwest 344 396 28,000  Level Houston Center
18:38 30.4056 -95.9153 208° Southwest 342 394 28,000  Level Houston Center
18:39 30.3222 -95.9675 208° Southwest 342 394 28,000  Level Houston Center
18:40 30.2383 -96.0200 208° Southwest 344 396 28,000  Level Houston Center
18:41 30.1417 -96.0808 209° Southwest 346 398 28,000  Level Houston Center
18:42 30.0639 -96.1294 208° Southwest 345 397 28,000  Level Houston Center
18:44 29.9631 -96.1922 208° Southwest 343 395 28,000  Level Houston Center
18:45 29.8789 -96.2453 209° Southwest 344 396 28,000  Level Houston Center
18:46 29.7958 -96.2986 209° Southwest 342 394 28,000  Level Houston Center
18:47 29.7117 -96.3500 208° Southwest 343 395 28,000  Level Houston Center
18:49 29.5408 -96.4483 207° Southwest 342 394 28,000  Level Houston Center
18:50 29.4350 -96.5028 204° Southwest 345 397 28,000  Level Houston Center
18:51 29.3492 -96.5506 206° Southwest 341 392 28,000  Level Houston Center
18:52 29.2636 -96.5981 206° Southwest 339 390 28,000  Level Houston Center
18:53 29.1786 -96.6467 207° Southwest 337 388 28,000  Level Houston Center
18:54 29.0928 -96.6944 206° Southwest 338 389 28,000  Level Houston Center
18:55 29.0075 -96.7408 205° Southwest 338 389 28,000  Level Houston Center
18:56 28.9214 -96.7872 205° Southwest 338 389 28,000  Level Houston Center
18:57 28.8194 -96.8431 206° Southwest 338 389 28,000  Level Houston Center
18:58 28.7369 -96.8894 206° Southwest 334 384 28,000  Level Houston Center
18:59 28.6525 -96.9336 205° Southwest 333 383 28,000  Level Houston Center
19:00 28.5686 -96.9794 206° Southwest 333 383 28,000  Level Houston Center
19:01 28.4842 -97.0239 205° Southwest 334 384 28,000  Level Houston Center
19:02 28.4003 -97.0692 205° Southwest 333 383 28,000  Level Houston Center
19:03 28.3000 -97.1239 206° Southwest 333 383 28,000  Level Houston Center
19:04 28.2158 -97.1686 205° Southwest 333 383 28,000  Level Houston Center
19:05 28.1325 -97.2142 206° Southwest 333 383 28,000  Level Houston Center
19:06 28.0481 -97.2594 205° Southwest 334 384 28,000  Level Houston Center
19:07 27.9633 -97.3039 205° Southwest 334 384 28,000  Level Houston Center
19:08 27.8761 -97.3497 205° Southwest 335 386 28,000  Level Houston Center
19:09 27.7914 -97.3950 205° Southwest 335 386 28,000  Level Houston Center
19:10 27.6886 -97.4492 205° Southwest 338 389 28,000  Level Houston Center
19:11 27.6019 -97.4953 205° Southwest 341 392 28,000 -180 Level Houston Center
19:12 27.5158 -97.5408 205° Southwest 341 392 27,700 -1,140 Descending Houston Center
19:14 27.4228 -97.5906 205° Southwest 359 413 25,700 -1,800 Descending Houston Center
19:15 27.3208 -97.6408 204° Southwest 389 448 24,100 -1,320 Descending Houston Center
19:16 27.2236 -97.6978 208° Southwest 394 453 23,000 -1,500 Descending Houston Center
19:17 27.1408 -97.8000 228° Southwest 370 426 21,000 -1,920 Descending Houston Center
19:18 27.0678 -97.8956 229° Southwest 370 426 19,100 -1,680 Descending Houston Center
19:19 26.9772 -98.0031 227° Southwest 382 440 17,100 -1,500 Descending Houston Center
19:20 26.9156 -98.0386 207° Southwest 388 447 16,100 -1,620 Descending Houston Center
19:20 26.8347 -98.0686 198° South 373 429 14,700 -2,040 Descending Houston Center
19:21 26.8056 -98.0803 200° South 366 421 14,000 -1,920 Descending Houston Center
19:22 26.7456 -98.1014 197° South 342 394 12,800 -1,860 Descending Houston Center
19:22 26.7200 -98.1117 200° South 331 381 12,100 -1,980 Descending Houston Center
19:23 26.6567 -98.1342 198° South 318 366 10,800 -1,860 Descending Houston Center
19:23 26.6317 -98.1444 200° South 316 364 10,200 -1,200 Descending Houston Center
19:23 26.5839 -98.1622 198° South 306 352 9,700 -1,020 Descending Houston Center
19:24 26.5575 -98.1761 205° Southwest 293 337 9,200 -1,260 Descending Houston Center
19:25 26.5058 -98.2006 203° Southwest 273 314 8,200 -1,560 Descending Houston Center
19:25 26.4864 -98.2108 205° Southwest 265 305 7,600 -1,620 Descending Houston Center
19:26 26.4192 -98.2436 204° Southwest 264 304 6,100 -1,440 Descending Houston Center
19:27 26.3758 -98.2664 205° Southwest 266 306 5,200 -1,560 Descending Houston Center
19:27 26.3458 -98.2853 209° Southwest 272 313 4,500 -1,440 Descending Houston Center
19:27 26.3122 -98.3000 201° Southwest 273 314 3,900 -960 Descending Houston Center
19:28 26.2764 -98.3117 196° South 267 307 3,500 -720 Descending Houston Center
19:29 26.2433 -98.3042 168° South 190 219 3,000 -1,080 Descending Houston Center
19:29 26.2322 -98.2953 144° Southeast 175 201 2,400 -1,740 Descending Houston Center
19:30 26.2175 -98.2797 137° Southeast 142 163 1,600 -1,560 Descending Houston Center
19:30 26.2053 -98.2678 139° Southeast 137 158 800 -600 Descending Houston Center
19:31 26.1792 -98.2433 140° Southeast 136 157 700 -120 Descending Houston Center